首页
METAR-TAF:

METAR-TAF

机场 :

Vance Air Force Base, 奧克拉荷馬州, 美国

纬度: 36-20N, 经度: 097-55W, 海拔: 398米

当前天气观测

该预报发布于44分钟前的23:56 UTC
风速7节,风向西北
温度 9°C
湿度 53%
气压 1017 hPa
能見度: 16.1公里
天空无云

METAR: KEND 172356Z AUTO 32007KT 10SM HZ CLR 09/00 A3002 RMK AO2 SLP170 T00921004 10167 20092 53001

时间: 18:40 (00:40 UTC)

预报

该预报发布于1小时和40分钟前的23:00 UTC
预报有效从17日的 23点(UTC)到 18日的 24点(UTC)
风速6节,风向多变
能见度10公里或以上
天空无云
成为
从 18日的 10点(UTC)到 18日的 11点(UTC)
风速9节,风向西南
能见度10公里或以上
散云层高于7000英尺
成为
从 18日的 15点(UTC)到 18日的 16点(UTC)
风速10节,风向西,有时为15节阵风
能见度10公里或以上
散云层高于8000英尺
成为
从 18日的 21点(UTC)到 18日的 22点(UTC)
风速6节,风向多变
能見度: 1810
天空无云

TAF: KEND 172300Z 1723/1824 VRB06KT 9999 SKC QNH2987INS BECMG 1810/1811 22009KT 9999 SCT070 WS010/25030KT QNH2985INS BECMG 1815/1816 28010G15KT 9999 SCT080 QNH2980INS BECMG 1821/1822 VRB06KT 9999 SKC QNH2985INS TX18/1723Z TN03/1809Z LAST NO AMDS AFT 1723 NEXT 1810

超过4000个机场的气象观测和天气预报(METAR&TAF报告)。

可查询的气象台以黄色和红色小点在地图上表示。

将鼠标移到小点上方,可查看气象台名称。

然后点击查看天气观测和预报。

如需切换地图:点击带黑十字的绿色按钮放大地图;点击带横线的绿色按钮缩小地图;或者点击绿色箭头查看邻近地区的地图。


METAR-TAF: